Tiempo atmosférico en la estación meteorológica de Álora, Málaga (181 m.)



Fecha
DESCASC
Temp. máxima en grados centígrados (hora)
DESCASC
Temp. mínima en grados centígrados (hora)
DESCASC
Temp. media en grados centígrados
DESCASC
Racha de viento máxima en m/sg (hora)
DESCASC
Velocidad máxima media en intervalos de 10 minutos(hora)
DESCASC
Precipitaciones diarias en mm
DESCASC
Precipitaciones de 00:00 a 06:00 en mm
DESCASC
Precipitaciones de 06:00 a 12:00 en mm
DESCASC
Precipitaciones de 12:00 a 18:00 en mm
DESCASC
Precipitaciones de 18:00 a 24:00 en mm
DESCASC
08-12-2019 21.4 (15:20) 8 (04:30) 14.7 9.17 (17:00) 5.83 (17:40) 0 0 0 0 0
07-12-2019 20.8 (14:30) 10 (23:50) 15.4 4.72 (08:20) 3.33 (17:10) 0 0 0 0 0
06-12-2019 20.7 (15:10) 7.8 (07:10) 14.3 6.67 (16:40) 4.17 (16:40) 0 0 0 0 0
05-12-2019 17.1 (13:10) 7.6 (00:00) 12.4 9.17 (14:00) 6.39 (14:00) 0.2 0 0 0 0.2
04-12-2019 18.3 (13:30) 9.9 (00:00) 14.1 7.22 (15:50) 4.17 (18:00) 1 0.8 0 0.2 0
03-12-2019 18.1 (15:20) 10.2 (00:00) 14.2 8.61 (11:00) 3.89 (10:00) 0.4 0.2 0 0.2 0
02-12-2019 13.9 (12:50) 10.1 (00:00) 12 5.56 (14:00) 3.89 (14:40) 7.2 0 4.6 0.2 2.4
01-12-2019 20.9 (14:40) 10.6 (00:00) 15.8 9.72 (04:00) 3.89 (04:00) 0 0 0 0 0
30-11-2019 23.2 (14:50) 10.9 (00:00) 17.1 7.78 (23:00) 4.72 (23:50) 0 0 0 0 0
29-11-2019 22.5 (16:00) 12.9 (00:00) 17.7 10.28 (12:50) 6.11 (12:20) 0 0 0 0 0
28-11-2019 21.5 (15:40) 12.5 (00:00) 17 10.56 (13:10) 6.94 (13:00) 0 0 0 0 0
27-11-2019 22 (16:00) 14.4 (00:00) 18.2 11.94 (06:10) 5.83 (06:10) 0 0 0 0 0
26-11-2019 24 (14:50) 14.6 (00:00) 19.3 9.17 (18:10) 5 (19:10) 0 0 0 0 0
25-11-2019 20.4 (13:40) 11.7 (00:00) 16 10 (14:10) 5.83 (14:10) 0 0 0 0 0
24-11-2019 17.8 (15:10) 7.8 (00:00) 12.8 10.83 (16:30) 5.28 (14:50) 0 0 0 0 0
23-11-2019 17.2 (15:10) 11.3 (00:00) 14.3 20.28 (04:30) 11.39 (04:30) 0.2 0.2 0 0 0
22-11-2019 16.4 (17:10) 12.7 (00:00) 14.5 12.78 (20:30) 7.22 (20:50) 11.8 0 6.8 2.2 2.8
21-11-2019 14.5 (14:10) 9.4 (00:00) 11.9 5 (13:30) 3.33 (13:30) 0.4 0 0 0.2 0.2
20-11-2019 12.7 (16:20) 6.1 (00:00) 9.4 3.89 (17:40) 2.5 (04:50) 0 0 0 0 0
19-11-2019 18.8 (15:00) 7.7 (00:00) 13.2 6.39 (13:40) 3.89 (02:40) 0 0 0 0 0
18-11-2019 16.4 (13:30) 9.9 (00:00) 13.1 16.11 (05:10) 8.89 (05:10) 0 0 0 0 0
17-11-2019 17.2 (14:30) 6.8 (00:00) 12 11.67 (15:50) 6.11 (16:40) 0 0 0 0 0
16-11-2019 16.7 (15:20) 6.3 (00:00) 11.5 9.44 (12:50) 5 (12:50) 0 0 0 0 0
15-11-2019 14.3 (15:50) 7.9 (00:00) 11.1 13.06 (00:20) 7.78 (14:50) 0 0 0 0 0
14-11-2019 16.2 (00:00) 10.5 (00:00) 13.4 16.11 (14:50) 8.61 (14:50) 1.2 0 0 1.2 0
13-11-2019 19.7 (17:00) 13.2 (00:00) 16.5 12.5 (15:00) 7.22 (15:10) 0 0 0 0 0
12-11-2019 19.1 (14:00) 12.4 (00:00) 15.8 11.67 (14:20) 6.11 (14:40) 0 0 0 0 0
11-11-2019 15.8 (16:00) 12.3 (07:40) 14.1 12.5 (01:30) 5.28 (02:50) 0 0 0 0 0
10-11-2019 18.5 (15:00) 12.8 (00:00) 15.7 19.17 (10:10) 9.17 (17:40) 0 0 0 0 0

Gráficas

Temp. máximas Temp. mínimas Temp. medias Precipitaciones Rachas de viento máximas Velocidades máximas media en intervalos de 10 minutos

Datos horarios

Fecha y hora oficial Temperatura (ºC) Velocidad del viento (km/h) Dirección del viento Racha (km/h) Dirección de racha Precipitación (mm) Presión (hPa) Tendencia (hPa) Humedad (%)
2019-12-09 23:00:00 14.4 14 Noroeste 27 Noroeste 0 -- -- 73
2019-12-09 22:00:00 14.5 10 Noroeste 31 Noroeste 0 -- -- 74
2019-12-09 21:00:00 14.6 16 Noroeste 33 Oeste 0 -- -- 74
2019-12-09 20:00:00 14.5 15 Noroeste 30 Noroeste 0 -- -- 75
2019-12-09 19:00:00 14.9 12 Noroeste 27 Oeste 0 -- -- 72
2019-12-09 18:00:00 16.1 13 Noroeste 34 Oeste 0 -- -- 68
2019-12-09 17:00:00 18 18 Noroeste 36 Oeste 0 -- -- 63
2019-12-09 16:00:00 18.8 15 Noroeste 37 Oeste 0 -- -- 62
2019-12-09 15:00:00 19.2 9 Noroeste 37 Noroeste 0 -- -- 61
2019-12-09 14:00:00 19.6 21 Oeste 39 Oeste 0 -- -- 60
2019-12-09 13:00:00 19 16 Noroeste 37 Oeste 0 -- -- 63
2019-12-09 12:00:00 18.1 14 Noroeste 29 Noroeste 0 -- -- 68
2019-12-09 11:00:00 15.9 10 Noroeste 26 Noroeste 0 -- -- 74
2019-12-09 10:00:00 14.3 13 Norte 26 Norte 0 -- -- 81
2019-12-09 09:00:00 13.9 8 Norte 22 Norte 0 -- -- 80
2019-12-09 08:00:00 13.7 11 Norte 21 Norte 0 -- -- 80
2019-12-09 07:00:00 13.5 8 Noroeste 18 Norte 0 -- -- 81
2019-12-09 06:00:00 13.5 8 Norte 16 Noroeste 0 -- -- 80
2019-12-09 05:00:00 14 6 Noroeste 15 Norte 0 -- -- 76
2019-12-09 04:00:00 14.2 4 Norte 10 Norte 0 -- -- 73
2019-12-09 03:00:00 14.4 2 Norte 12 Nordeste 0 -- -- 71
2019-12-09 02:00:00 14.6 3 Noroeste 16 Nordeste 0 -- -- 66
2019-12-09 01:00:00 14.8 4 Norte 18 Nordeste 0 -- -- 64
2019-12-09 00:00:00 14.7 8 Nordeste 17 Nordeste 0 -- -- 64
2019-12-08 23:00:00 14.4 2 Nordeste 14 Noroeste 0 -- -- 67
2019-12-08 22:00:00 14.6 2 Nordeste 17 Noroeste 0 -- -- 68
2019-12-08 21:00:00 15.2 0 Calma 17 Noroeste 0 -- -- 65
2019-12-08 20:00:00 15.8 11 Noroeste 20 Norte 0 -- -- 63
2019-12-08 19:00:00 16.2 9 Norte 31 Norte 0 -- -- 61
2019-12-08 18:00:00 17.4 21 Norte 33 Noroeste 0 -- -- 55
2019-12-08 17:00:00 19.3 18 Norte 33 Noroeste 0 -- -- 49
2019-12-08 16:00:00 21.2 8 Noroeste 27 Noroeste 0 -- -- 47
2019-12-08 15:00:00 21.1 12 Oeste 30 Noroeste 0 -- -- 46
2019-12-08 14:00:00 20.3 13 Oeste 25 Noroeste 0 -- -- 51
2019-12-08 13:00:00 19.5 12 Oeste 21 Noroeste 0 -- -- 54
2019-12-08 12:00:00 18.1 7 Noroeste 17 Oeste 0 -- -- 59
2019-12-08 11:00:00 14.1 3 Oeste 9 Noroeste 0 -- -- 69
2019-12-08 10:00:00 11.2 3 Noroeste 10 Noroeste 0 -- -- 79
2019-12-08 09:00:00 9.4 6 Norte 15 Norte 0 -- -- 80
2019-12-08 08:00:00 8.5 0 Calma 12 Noroeste 0 -- -- 82
2019-12-08 07:00:00 8.5 6 Noroeste 12 Norte 0 -- -- 84
2019-12-08 06:00:00 8.1 0 Calma 3 Norte 0 -- -- 88
2019-12-08 05:00:00 8 0 Calma 3 Nordeste 0 -- -- 90
2019-12-08 04:00:00 8.3 0 Calma 5 Nordeste 0 -- -- 90
2019-12-08 03:00:00 8.4 2 Nordeste 4 Norte 0 -- -- 89
2019-12-08 02:00:00 8.8 0 Calma 8 Noroeste 0 -- -- 88
2019-12-08 01:00:00 9.2 2 Norte 5 Noroeste 0 -- -- 86
2019-12-08 00:00:00 10 0 Calma 4 Noroeste 0 -- -- 86
2019-12-07 23:00:00 10.8 2 Noroeste 5 Norte 0 -- -- 83
2019-12-07 22:00:00 11.6 0 Calma 3 Oeste 0 -- -- 81
2019-12-07 21:00:00 12.8 0 Calma 5 Nordeste 0 -- -- 77
2019-12-07 20:00:00 14 5 Nordeste 9 Sudeste 0 -- -- 73
2019-12-07 19:00:00 14.9 6 Sudeste 13 Sudeste 0 -- -- 71
2019-12-07 18:00:00 16.3 8 Sur 16 Sur 0 -- -- 66
2019-12-07 17:00:00 19.3 12 Sur 16 Sur 0 -- -- 56
2019-12-07 16:00:00 20.4 8 Sur 15 Sur 0 -- -- 47
2019-12-07 15:00:00 20.2 10 Sudeste 17 Sur 0 -- -- 47
2019-12-07 14:00:00 20.4 9 Sur 17 Sudoeste 0 -- -- 48
2019-12-07 13:00:00 19.5 6 Sur 13 Sur 0 -- -- 49
2019-12-07 12:00:00 17.1 4 Noroeste 12 Norte 0 -- -- 61
2019-12-07 11:00:00 14.2 2 Noroeste 5 Noroeste 0 -- -- 76
2019-12-07 10:00:00 12 0 Calma 11 Oeste 0 -- -- 86
2019-12-07 09:00:00 10.8 5 Noroeste 17 Noroeste 0 -- -- 85
2019-12-07 08:00:00 10.9 8 Norte 15 Norte 0 -- -- 85
2019-12-07 07:00:00 11.6 4 Norte 12 Noroeste 0 -- -- 87
2019-12-07 06:00:00 11.5 0 Calma 10 Norte 0 -- -- 90
2019-12-07 05:00:00 11.7 6 Noroeste 11 Noroeste 0 -- -- 90
2019-12-07 04:00:00 11.8 0 Calma 5 Sudoeste 0 -- -- 90
2019-12-07 03:00:00 11.8 0 Calma 4 Noroeste 0 -- -- 90
2019-12-07 02:00:00 11.6 0 Calma 11 Norte 0 -- -- 90
2019-12-07 01:00:00 11.8 5 Norte 11 Este 0 -- -- 88
2019-12-07 00:00:00 12.5 3 Nordeste 9 Nordeste 0 -- -- 85
2019-12-06 23:00:00 13.2 3 Nordeste 8 Nordeste 0 -- -- 84
2019-12-06 22:00:00 13.2 6 Nordeste 8 Nordeste 0 -- -- 84
2019-12-06 21:00:00 13.6 5 Nordeste 6 Nordeste 0 -- -- 82
2019-12-06 20:00:00 14 2 Sur 12 Sur 0 -- -- 80
2019-12-06 19:00:00 14.3 8 Sur 13 Sur 0 -- -- 77
2019-12-06 18:00:00 15.7 5 Sudoeste 14 Sur 0 -- -- 67
2019-12-06 17:00:00 16.5 10 Sur 24 Sur 0 -- -- 61
2019-12-06 16:00:00 19.1 10 Sur 14 Sudeste 0 -- -- 51
2019-12-06 15:00:00 20.5 3 Sur 13 Sudoeste 0 -- -- 48
2019-12-06 14:00:00 19.4 3 Sur 10 Sudeste 0 -- -- 54
2019-12-06 13:00:00 17.8 3 Sur 9 Sudeste 0 -- -- 65
2019-12-06 12:00:00 15.6 0 Calma 8 Noroeste 0 -- -- 69
2019-12-06 11:00:00 12.4 2 Noroeste 6 Oeste 0 -- -- 83
2019-12-06 10:00:00 10.2 0 Calma 8 Norte 0 -- -- 90
2019-12-06 09:00:00 8.6 4 Norte 12 Noroeste 0 -- -- 92
2019-12-06 08:00:00 7.8 3 Nordeste 15 Noroeste 0 -- -- 91
2019-12-06 07:00:00 7.9 6 Norte 10 Noroeste 0 -- -- 91
2019-12-06 06:00:00 8.3 3 Nordeste 12 Nordeste 0 -- -- 92
2019-12-06 05:00:00 9 2 Sudeste 13 Norte 0 -- -- 92
2019-12-06 04:00:00 9.4 9 Noroeste 17 Norte 0 -- -- 94
2019-12-06 03:00:00 9.5 2 Nordeste 8 Norte 0 -- -- 93
2019-12-06 02:00:00 9.6 3 Noroeste 5 Nordeste 0 -- -- 93
2019-12-06 01:00:00 10.2 5 Nordeste 8 Noroeste 0 -- -- 93
2019-12-06 00:00:00 11 3 Norte 6 Noroeste 0 -- -- 93
2019-12-05 23:00:00 11.9 3 Nordeste 3 Nordeste 0 -- -- 92
2019-12-05 22:00:00 12.5 0 Calma 6 Norte 0 -- -- 91
2019-12-05 21:00:00 12.6 6 Norte 8 Norte 0 -- -- 91
2019-12-05 20:00:00 12.9 3 Norte 10 Sur 0.2 -- -- 90
2019-12-05 19:00:00 13.9 5 Sur 15 Sur 0 -- -- 80
2019-12-05 18:00:00 14.1 8 Sur 11 Sur 0 -- -- 79
2019-12-05 17:00:00 14.4 9 Sur 14 Sur 0 -- -- 75
2019-12-05 16:00:00 14.4 10 Este 33 Sudeste 0 -- -- 65
2019-12-05 15:00:00 14.8 13 Sudeste 32 Sur 0 -- -- 69
2019-12-05 14:00:00 15.5 23 Sudeste 33 Sudeste 0 -- -- 62
2019-12-05 13:00:00 17 11 Sur 18 Sur 0 -- -- 58
2019-12-05 12:00:00 14.5 2 Norte 10 Noroeste 0 -- -- 60
2019-12-05 11:00:00 13.1 5 Noroeste 12 Norte 0 -- -- 67
2019-12-05 10:00:00 10.2 5 Norte 19 Norte 0 -- -- 75
2019-12-05 09:00:00 7.7 4 Norte 15 Norte 0 -- -- 82
2019-12-05 08:00:00 7.8 6 Norte 20 Noroeste 0 -- -- 83
2019-12-05 07:00:00 7.9 3 Norte 19 Noroeste 0 -- -- 79
2019-12-05 06:00:00 8.1 3 Noroeste 12 Norte 0 -- -- 78
2019-12-05 05:00:00 8.9 9 Noroeste 20 Noroeste 0 -- -- 78
2019-12-05 04:00:00 9.5 11 Noroeste 21 Oeste 0 -- -- 76
2019-12-05 03:00:00 9.8 8 Noroeste 21 Noroeste 0 -- -- 72
2019-12-05 02:00:00 9.3 9 Noroeste 16 Noroeste 0 -- -- 75
2019-12-05 01:00:00 9.2 8 Noroeste 21 Noroeste 0 -- -- 74
2019-12-05 00:00:00 9.9 12 Noroeste 19 Norte 0 -- -- 72
2019-12-04 23:00:00 10.1 10 Noroeste 17 Norte 0 -- -- 73
2019-12-04 22:00:00 10.8 9 Noroeste 22 Norte 0 -- -- 71
2019-12-04 21:00:00 11.1 6 Norte 18 Oeste 0 -- -- 72
2019-12-04 20:00:00 12.2 6 Norte 16 Norte 0 -- -- 72
2019-12-04 19:00:00 13 8 Norte 23 Noroeste 0 -- -- 68
2019-12-04 18:00:00 14.3 15 Norte 26 Noroeste 0 -- -- 64
2019-12-04 17:00:00 17.1 13 Noroeste 24 Noroeste 0 -- -- 57
2019-12-04 16:00:00 18 9 Noroeste 26 Noroeste 0 -- -- 50
2019-12-04 15:00:00 18 7 Noroeste 26 Oeste 0 -- -- 48
2019-12-04 14:00:00 17.4 11 Noroeste 26 Oeste 0 -- -- 57
2019-12-04 13:00:00 17.3 6 Noroeste 21 Oeste 0.2 -- -- 64
2019-12-04 12:00:00 15.7 11 Oeste 25 Oeste 0 -- -- 69
2019-12-04 11:00:00 15.5 5 Sudoeste 10 Oeste 0 -- -- 66
2019-12-04 10:00:00 12.8 3 Oeste 9 Oeste 0 -- -- 76
2019-12-04 09:00:00 11.4 3 Noroeste 18 Noroeste 0 -- -- 81
2019-12-04 08:00:00 11 4 Noroeste 15 Oeste 0 -- -- 81
2019-12-04 07:00:00 11.5 3 Norte 12 Norte 0 -- -- 80
2019-12-04 06:00:00 11.3 7 Norte 23 Noroeste 0 -- -- 84
2019-12-04 05:00:00 10.9 7 Norte 15 Norte 0 -- -- 85
2019-12-04 04:00:00 11.3 6 Norte 17 Noroeste 0 -- -- 85
2019-12-04 03:00:00 11.6 10 Noroeste 19 Norte 0.8 -- -- 87
2019-12-04 02:00:00 12.8 6 Noroeste 23 Oeste 0 -- -- 79
2019-12-04 01:00:00 12.5 5 Norte 13 Norte 0 -- -- 76
2019-12-04 00:00:00 12.7 8 Norte 14 Norte 0 -- -- 74
2019-12-03 23:00:00 13 8 Noroeste 14 Noroeste 0 -- -- 74
2019-12-03 22:00:00 13.4 8 Noroeste 21 Noroeste 0 -- -- 73
2019-12-03 21:00:00 13.9 8 Noroeste 20 Oeste 0 -- -- 70
2019-12-03 20:00:00 14.2 12 Noroeste 20 Noroeste 0 -- -- 70
2019-12-03 19:00:00 14.4 11 Noroeste 19 Oeste 0 -- -- 71
2019-12-03 18:00:00 15.1 10 Noroeste 18 Noroeste 0 -- -- 68
2019-12-03 17:00:00 16.2 9 Oeste 17 Oeste 0 -- -- 66
2019-12-03 16:00:00 16.9 9 Noroeste 20 Oeste 0 -- -- 63
2019-12-03 15:00:00 17.8 6 Noroeste 20 Oeste 0.2 -- -- 59
2019-12-03 14:00:00 16.2 5 Noroeste 17 Noroeste 0 -- -- 67
2019-12-03 13:00:00 15.8 6 Noroeste 22 Oeste 0 -- -- 71
2019-12-03 12:00:00 14.8 7 Noroeste 24 Noroeste 0 -- -- 74
2019-12-03 11:00:00 12.5 13 Noroeste 31 Oeste 0 -- -- 80
2019-12-03 10:00:00 11.8 14 Noroeste 25 Noroeste 0 -- -- 80
2019-12-03 09:00:00 11.1 9 Noroeste 23 Noroeste 0 -- -- 83
2019-12-03 08:00:00 10.6 8 Noroeste 23 Noroeste 0 -- -- 87
2019-12-03 07:00:00 10.3 10 Noroeste 20 Oeste 0 -- -- 94
2019-12-03 06:00:00 10.6 3 Oeste 7 Sudoeste 0 -- -- 95
2019-12-03 05:00:00 10.8 4 Noroeste 12 Norte 0.2 -- -- 95
2019-12-03 04:00:00 11 0 Calma 8 Norte 0 -- -- 95
2019-12-03 03:00:00 11.1 4 Noroeste 7 Noroeste 0 -- -- 95
2019-12-03 02:00:00 11.4 2 Oeste 9 Sudoeste 0 -- -- 95
2019-12-03 01:00:00 11.2 2 Norte 8 Norte 0 -- -- 94
2019-12-03 00:00:00 11.4 3 Este 7 Norte 0 -- -- 94
2019-12-02 23:00:00 11.7 4 Noroeste 8 Noroeste 0.2 -- -- 93
2019-12-02 22:00:00 11.9 2 Nordeste 5 Norte 2 -- -- 92
2019-12-02 21:00:00 11.9 0 Calma 5 Norte 0 -- -- 91
2019-12-02 20:00:00 11.9 0 Calma 4 Nordeste 0 -- -- 91
2019-12-02 19:00:00 12 0 Calma 4 Noroeste 0.2 -- -- 90
2019-12-02 18:00:00 12.3 0 Calma 6 Sudeste 0 -- -- 90
2019-12-02 17:00:00 12.5 3 Noroeste 10 Sudeste 0.2 -- -- 92
2019-12-02 16:00:00 12.9 6 Sudeste 19 Sur 0 -- -- 89
2019-12-02 15:00:00 13.4 13 Sur 20 Sur 0 -- -- 86
2019-12-02 14:00:00 13.6 14 Sur 20 Sur 0 -- -- 83
2019-12-02 13:00:00 13.8 13 Sur 19 Sur 0 -- -- 81
2019-12-02 12:00:00 13.2 4 Sudoeste 10 Sudoeste 0 -- -- 86
2019-12-02 11:00:00 12 2 Oeste 6 Sudoeste 0 -- -- 95
2019-12-02 10:00:00 11.8 3 Sur 8 Este 0.6 -- -- 95
2019-12-02 09:00:00 10.6 4 Norte 12 Sur 4 -- -- 95
2019-12-02 08:00:00 10.5 0 Calma 5 Oeste 0 -- -- 94
2019-12-02 07:00:00 10.5 0 Calma 9 Nordeste 0 -- -- 93
2019-12-02 06:00:00 10.1 5 Sudoeste 12 Sudoeste 0 -- -- 93
2019-12-02 05:00:00 10.4 2 Este 6 Nordeste 0 -- -- 92
2019-12-02 04:00:00 10.7 5 Nordeste 9 Oeste 0 -- -- 92
2019-12-02 03:00:00 10.9 0 Calma 3 Nordeste 0 -- -- 92
2019-12-02 02:00:00 10.7 3 Noroeste 6 Norte 0 -- -- 92
2019-12-02 01:00:00 10.7 0 Calma 7 Noroeste 0 -- -- 91
2019-12-02 00:00:00 10.6 4 Oeste 9 Oeste 0 -- -- 91
2019-12-01 23:00:00 10.8 3 Norte 6 Noroeste 0 -- -- 90
2019-12-01 22:00:00 11.3 0 Calma 9 Noroeste 0 -- -- 89
2019-12-01 21:00:00 12 5 Norte 9 Noroeste 0 -- -- 87
2019-12-01 20:00:00 12.8 3 Sur 7 Sudoeste 0 -- -- 85
2019-12-01 19:00:00 13.6 4 Norte 23 Norte 0 -- -- 81
2019-12-01 18:00:00 14.4 5 Noroeste 12 Norte 0 -- -- 81
2019-12-01 17:00:00 15.4 11 Sudoeste 23 Sudoeste 0 -- -- 74
2019-12-01 16:00:00 19.6 6 Noroeste 25 Oeste 0 -- -- 48
2019-12-01 15:00:00 19.7 11 Oeste 25 Oeste 0 -- -- 46
2019-12-01 14:00:00 20.4 11 Noroeste 26 Noroeste 0 -- -- 47
2019-12-01 13:00:00 18.5 8 Noroeste 27 Oeste 0 -- -- 50
2019-12-01 12:00:00 17.1 9 Noroeste 22 Oeste 0 -- -- 57
2019-12-01 11:00:00 15.8 3 Norte 12 Nordeste 0 -- -- 63
2019-12-01 10:00:00 15.3 4 Nordeste 9 Nordeste 0 -- -- 68
2019-12-01 09:00:00 13 0 Calma 9 Oeste 0 -- -- 77
2019-12-01 08:00:00 13.2 4 Norte 13 Noroeste 0 -- -- 75
2019-12-01 07:00:00 13.2 8 Nordeste 15 Nordeste 0 -- -- 74
2019-12-01 06:00:00 13.6 10 Nordeste 15 Oeste 0 -- -- 76
2019-12-01 05:00:00 14.4 6 Sudoeste 27 Oeste 0 -- -- 76
2019-12-01 04:00:00 14.4 14 Noroeste 35 Oeste 0 -- -- 79
2019-12-01 03:00:00 15.7 6 Norte 17 Norte 0 -- -- 73
2019-12-01 02:00:00 15.7 5 Norte 25 Noroeste 0 -- -- 71
2019-12-01 01:00:00 14.9 7 Noroeste 23 Noroeste 0 -- -- 71
2019-12-01 00:00:00 15 15 Noroeste 27 Noroeste 0 -- -- 71
2019-11-30 23:00:00 14.9 12 Noroeste 28 Oeste 0 -- -- 74
2019-11-30 22:00:00 15 11 Noroeste 23 Noroeste 0 -- -- 74
2019-11-30 21:00:00 15.6 10 Noroeste 26 Noroeste 0 -- -- 71
2019-11-30 20:00:00 16.4 9 Noroeste 21 Noroeste 0 -- -- 69
2019-11-30 19:00:00 17.4 9 Noroeste 23 Noroeste 0 -- -- 65
2019-11-30 18:00:00 18.7 4 Sur 17 Sur 0 -- -- 58
2019-11-30 17:00:00 21.1 13 Sur 18 Sur 0 -- -- 52
2019-11-30 16:00:00 22.5 13 Sur 17 Sur 0 -- -- 48
2019-11-30 15:00:00 22.9 11 Sur 17 Sur 0 -- -- 47
2019-11-30 14:00:00 22.9 8 Sur 17 Sur 0 -- -- 46
2019-11-30 13:00:00 22 9 Sur 17 Sur 0 -- -- 49
2019-11-30 12:00:00 19.7 5 Sur 12 Sur 0 -- -- 57
2019-11-30 11:00:00 16.7 3 Sur 5 Sudeste 0 -- -- 66
2019-11-30 10:00:00 12.6 2 Norte 4 Nordeste 0 -- -- 78
2019-11-30 09:00:00 11 0 Calma 6 Nordeste 0 -- -- 82
2019-11-30 08:00:00 11.1 3 Nordeste 10 Norte 0 -- -- 81
2019-11-30 07:00:00 11.3 6 Norte 18 Noroeste 0 -- -- 82
2019-11-30 06:00:00 11.3 0 Calma 12 Noroeste 0 -- -- 80
2019-11-30 05:00:00 11.8 4 Norte 20 Norte 0 -- -- 81
2019-11-30 04:00:00 11.9 9 Norte 18 Norte 0 -- -- 79
2019-11-30 03:00:00 12.3 4 Noroeste 13 Noroeste 0 -- -- 78
2019-11-30 02:00:00 13 6 Noroeste 14 Norte 0 -- -- 76
2019-11-30 01:00:00 13 4 Nordeste 15 Norte 0 -- -- 75
2019-11-30 00:00:00 14.2 3 Norte 21 Norte 0 -- -- 73
2019-11-29 23:00:00 15.2 17 Norte 24 Norte 0 -- -- 70
2019-11-29 22:00:00 15.2 14 Norte 23 Noroeste 0 -- -- 71
2019-11-29 21:00:00 15.7 12 Noroeste 19 Norte 0 -- -- 69
2019-11-29 20:00:00 16.1 8 Noroeste 21 Oeste 0 -- -- 68
2019-11-29 19:00:00 17.4 10 Noroeste 23 Oeste 0 -- -- 63
2019-11-29 18:00:00 19.3 10 Noroeste 20 Noroeste 0 -- -- 59
2019-11-29 17:00:00 21.6 13 Noroeste 28 Oeste 0 -- -- 50
2019-11-29 16:00:00 22.5 14 Oeste 27 Oeste 0 -- -- 48
2019-11-29 15:00:00 22 16 Oeste 31 Oeste 0 -- -- 49
2019-11-29 14:00:00 21.8 16 Oeste 32 Noroeste 0 -- -- 49
2019-11-29 13:00:00 20.6 16 Noroeste 37 Oeste 0 -- -- 52
2019-11-29 12:00:00 19.3 17 Noroeste 35 Oeste 0 -- -- 55
2019-11-29 11:00:00 17.3 19 Noroeste 35 Noroeste 0 -- -- 60
2019-11-29 10:00:00 15.6 19 Noroeste 37 Noroeste 0 -- -- 66
2019-11-29 09:00:00 13.9 13 Noroeste 28 Noroeste 0 -- -- 71
2019-11-29 08:00:00 12.9 14 Noroeste 35 Oeste 0 -- -- 71
2019-11-29 07:00:00 13.5 17 Noroeste 36 Noroeste 0 -- -- 68
2019-11-29 06:00:00 13.6 16 Noroeste 33 Oeste 0 -- -- 68
2019-11-29 05:00:00 13.4 15 Noroeste 35 Noroeste 0 -- -- 70
2019-11-29 04:00:00 13.6 18 Noroeste 32 Noroeste 0 -- -- 70
2019-11-29 03:00:00 13.5 13 Noroeste 28 Oeste 0 -- -- 72
2019-11-29 02:00:00 13.5 12 Noroeste 28 Oeste 0 -- -- 73
2019-11-29 01:00:00 13.3 12 Noroeste 23 Oeste 0 -- -- 76
2019-11-29 00:00:00 13.5 9 Noroeste 23 Oeste 0 -- -- 76
2019-11-28 23:00:00 13.7 9 Noroeste 21 Oeste 0 -- -- 76
2019-11-28 22:00:00 14.1 6 Noroeste 17 Noroeste 0 -- -- 73
2019-11-28 21:00:00 15.3 8 Noroeste 25 Noroeste 0 -- -- 68
2019-11-28 20:00:00 15.6 13 Norte 23 Noroeste 0 -- -- 67
2019-11-28 19:00:00 16.4 12 Norte 28 Norte 0 -- -- 65
2019-11-28 18:00:00 18.1 8 Norte 22 Norte 0 -- -- 60
2019-11-28 17:00:00 19.7 8 Norte 26 Norte 0 -- -- 56
2019-11-28 16:00:00 21.1 11 Norte 26 Oeste 0 -- -- 51
2019-11-28 15:00:00 21.2 13 Noroeste 31 Noroeste 0 -- -- 51
2019-11-28 14:00:00 20.5 15 Noroeste 38 Oeste 0 -- -- 52
2019-11-28 13:00:00 18.9 25 Oeste 37 Oeste 0 -- -- 56
2019-11-28 12:00:00 18.7 17 Oeste 33 Oeste 0 -- -- 55
2019-11-28 11:00:00 17.9 13 Noroeste 35 Oeste 0 -- -- 61
2019-11-28 10:00:00 16.4 10 Noroeste 24 Noroeste 0 -- -- 67
2019-11-28 09:00:00 13.3 10 Norte 21 Norte 0 -- -- 81
2019-11-28 08:00:00 12.7 8 Noroeste 18 Noroeste 0 -- -- 81
2019-11-28 07:00:00 12.8 6 Noroeste 16 Noroeste 0 -- -- 83
2019-11-28 06:00:00 12.7 9 Noroeste 22 Noroeste 0 -- -- 84
2019-11-28 05:00:00 12.5 7 Noroeste 21 Oeste 0 -- -- 84
2019-11-28 04:00:00 12.9 12 Noroeste 23 Oeste 0 -- -- 84
2019-11-28 03:00:00 13.1 8 Noroeste 14 Noroeste 0 -- -- 83
2019-11-28 02:00:00 13.8 4 Noroeste 13 Oeste 0 -- -- 80
2019-11-28 01:00:00 14.7 8 Oeste 26 Oeste 0 -- -- 78
2019-11-28 00:00:00 15.1 7 Noroeste 19 Noroeste 0 -- -- 78
2019-11-27 23:00:00 16.1 9 Noroeste 22 Oeste 0 -- -- 74
2019-11-27 22:00:00 16.1 5 Oeste 14 Noroeste 0 -- -- 73
2019-11-27 21:00:00 16.1 5 Norte 9 Norte 0 -- -- 71
2019-11-27 20:00:00 16.4 3 Oeste 8 Noroeste 0 -- -- 70
2019-11-27 19:00:00 16.9 5 Noroeste 16 Noroeste 0 -- -- 67
2019-11-27 18:00:00 18.5 8 Norte 23 Noroeste 0 -- -- 61
2019-11-27 17:00:00 21 9 Noroeste 33 Norte 0 -- -- 54
2019-11-27 16:00:00 22 12 Noroeste 27 Oeste 0 -- -- 51
2019-11-27 15:00:00 21.3 14 Noroeste 29 Oeste 0 -- -- 52
2019-11-27 14:00:00 20 10 Noroeste 29 Noroeste 0 -- -- 57
2019-11-27 06:00:00 -- -- -- -- -- -- -- -- --
2019-11-27 05:00:00 -- -- -- -- -- -- -- -- --
2019-11-27 04:00:00 -- -- -- -- -- -- -- -- --
2019-11-27 03:00:00 -- -- -- -- -- -- -- -- --
2019-11-27 02:00:00 15 3 Oeste 9 Oeste 0 -- -- 73
2019-11-27 01:00:00 15.4 3 Nordeste 12 Noroeste 0 -- -- 72
2019-11-27 00:00:00 15.6 3 Noroeste 15 Norte 0 -- -- 72
2019-11-26 23:00:00 15.7 9 Noroeste 15 Norte 0 -- -- 73
2019-11-26 22:00:00 16.3 8 Noroeste 23 Norte 0 -- -- 72
2019-11-26 21:00:00 17.2 17 Norte 31 Norte 0 -- -- 67
2019-11-26 20:00:00 17.7 17 Noroeste 32 Oeste 0 -- -- 65
2019-11-26 19:00:00 18 16 Noroeste 33 Oeste 0 -- -- 69
2019-11-26 18:00:00 18.9 13 Noroeste 30 Noroeste 0 -- -- 72
2019-11-26 17:00:00 20.4 13 Noroeste 24 Oeste 0 -- -- 66
2019-11-26 16:00:00 21.5 10 Noroeste 32 Noroeste 0 -- -- 63
2019-11-26 15:00:00 23.8 13 Noroeste 27 Oeste 0 -- -- 57
2019-11-26 14:00:00 22.6 8 Noroeste 21 Noroeste 0 -- -- 60
2019-11-26 13:00:00 21.8 8 Noroeste 24 Oeste 0 -- -- 61
2019-11-26 12:00:00 21.3 10 Noroeste 20 Oeste 0 -- -- 62
2019-11-26 11:00:00 19.3 9 Norte 22 Norte 0 -- -- 67
2019-11-26 10:00:00 17.7 6 Noroeste 13 Oeste 0 -- -- 73
2019-11-26 09:00:00 15.8 4 Noroeste 10 Norte 0 -- -- 81
2019-11-26 08:00:00 14.7 5 Norte 13 Norte 0 -- -- 83
2019-11-26 07:00:00 15.2 4 Norte 17 Nordeste 0 -- -- 80
2019-11-26 06:00:00 15.5 3 Noroeste 21 Noroeste 0 -- -- 81
2019-11-26 05:00:00 15.9 10 Noroeste 20 Norte 0 -- -- 81
2019-11-26 04:00:00 16.3 9 Norte 23 Noroeste 0 -- -- 80
2019-11-26 03:00:00 16.4 8 Noroeste 23 Oeste 0 -- -- 81
2019-11-26 02:00:00 16.8 14 Noroeste 27 Oeste 0 -- -- 82
2019-11-26 01:00:00 17.1 14 Noroeste 30 Noroeste 0 -- -- 81
2019-11-26 00:00:00 17.2 6 Oeste 13 Oeste 0 -- -- 84
2019-11-25 23:00:00 17.6 5 Noroeste 19 Noroeste 0 -- -- 83
2019-11-25 22:00:00 17.6 5 Noroeste 14 Noroeste 0 -- -- 81
2019-11-25 21:00:00 17.7 4 Noroeste 24 Noroeste 0 -- -- 81
2019-11-25 20:00:00 17.9 8 Noroeste 17 Norte 0 -- -- 78
2019-11-25 19:00:00 17.9 9 Norte 16 Oeste 0 -- -- 76
2019-11-25 18:00:00 18.5 5 Noroeste 25 Noroeste 0 -- -- 74
2019-11-25 17:00:00 19.3 10 Noroeste 24 Noroeste 0 -- -- 70
2019-11-25 16:00:00 19.8 13 Noroeste 29 Noroeste 0 -- -- 69
2019-11-25 15:00:00 19.8 11 Noroeste 36 Oeste 0 -- -- 68
2019-11-25 14:00:00 20.1 17 Noroeste 32 Noroeste 0 -- -- 66
2019-11-25 13:00:00 19.7 8 Noroeste 26 Noroeste 0 -- -- 68
2019-11-25 12:00:00 17.9 12 Noroeste 27 Oeste 0 -- -- 73
2019-11-25 11:00:00 17.2 3 Noroeste 26 Oeste 0 -- -- 74
2019-11-25 10:00:00 16.5 7 Noroeste 20 Oeste 0 -- -- 76
2019-11-25 09:00:00 13.9 7 Noroeste 26 Noroeste 0 -- -- 82
2019-11-25 08:00:00 13.2 8 Noroeste 23 Norte 0 -- -- 81
2019-11-25 07:00:00 13.5 12 Noroeste 26 Noroeste 0 -- -- 78
2019-11-25 06:00:00 13.1 8 Noroeste 24 Norte 0 -- -- 77
2019-11-25 05:00:00 12.2 7 Noroeste 19 Noroeste 0 -- -- 80
2019-11-25 04:00:00 11.9 7 Norte 21 Norte 0 -- -- 78
2019-11-25 03:00:00 12.4 6 Norte 20 Oeste 0 -- -- 76
2019-11-25 02:00:00 12.3 9 Noroeste 29 Noroeste 0 -- -- 76
2019-11-25 01:00:00 12.4 5 Norte 18 Norte 0 -- -- 73
2019-11-25 00:00:00 12.6 9 Noroeste 28 Noroeste 0 -- -- 72
2019-11-24 23:00:00 12.8 11 Noroeste 32 Noroeste 0 -- -- 70
2019-11-24 22:00:00 12.7 10 Noroeste 23 Oeste 0 -- -- 70
2019-11-24 21:00:00 12.7 9 Noroeste 22 Noroeste 0 -- -- 69
2019-11-24 20:00:00 12.9 7 Noroeste 26 Noroeste 0 -- -- 65
2019-11-24 19:00:00 13.7 12 Noroeste 28 Noroeste 0 -- -- 61
2019-11-24 18:00:00 14.7 9 Noroeste 33 Noroeste 0 -- -- 56
2019-11-24 17:00:00 16.6 12 Noroeste 39 Noroeste 0 -- -- 50
2019-11-24 16:00:00 17.4 17 Noroeste 37 Oeste 0 -- -- 46
2019-11-24 15:00:00 17.7 15 Noroeste 39 Noroeste 0 -- -- 47
2019-11-24 14:00:00 17.2 17 Noroeste 35 Oeste 0 -- -- 50
2019-11-24 13:00:00 16.2 15 Noroeste 37 Oeste 0 -- -- 54
2019-11-24 12:00:00 15.8 16 Noroeste 32 Noroeste 0 -- -- 58
2019-11-24 11:00:00 13.8 8 Noroeste 26 Oeste 0 -- -- 63
2019-11-24 10:00:00 11.5 6 Noroeste 18 Oeste 0 -- -- 71
2019-11-24 09:00:00 9.5 3 Oeste 15 Noroeste 0 -- -- 80
2019-11-24 08:00:00 8 6 Noroeste 21 Oeste 0 -- -- 81
2019-11-24 07:00:00 9.5 13 Noroeste 27 Oeste 0 -- -- 77
2019-11-24 06:00:00 9.6 13 Noroeste 23 Noroeste 0 -- -- 78
2019-11-24 05:00:00 9.7 8 Noroeste 26 Noroeste 0 -- -- 78
2019-11-24 04:00:00 10.4 11 Noroeste 23 Oeste 0 -- -- 75
2019-11-24 03:00:00 10.7 10 Noroeste 24 Oeste 0 -- -- 75
2019-11-24 02:00:00 10.9 11 Noroeste 21 Noroeste 0 -- -- 74
2019-11-24 01:00:00 11.1 9 Noroeste 21 Noroeste 0 -- -- 72
2019-11-24 00:00:00 11.3 9 Noroeste 28 Noroeste 0 -- -- 72
2019-11-23 23:00:00 12.1 14 Noroeste 24 Oeste 0 -- -- 67
2019-11-23 22:00:00 12.4 13 Noroeste 24 Oeste 0 -- -- 66
2019-11-23 21:00:00 12.8 9 Noroeste 22 Oeste 0 -- -- 65
2019-11-23 20:00:00 13.3 6 Noroeste 24 Norte 0 -- -- 64
2019-11-23 19:00:00 13.8 8 Noroeste 37 Oeste 0 -- -- 61
2019-11-23 18:00:00 14.5 7 Noroeste 33 Oeste 0 -- -- 57
2019-11-23 17:00:00 16.9 18 Noroeste 42 Oeste 0 -- -- 51
2019-11-23 16:00:00 17 15 Noroeste 54 Oeste 0 -- -- 54
2019-11-23 15:00:00 17.1 20 Oeste 50 Oeste 0 -- -- 52
2019-11-23 14:00:00 16 23 Noroeste 43 Noroeste 0 -- -- 55
2019-11-23 13:00:00 16 27 Oeste 58 Oeste 0 -- -- 59
2019-11-23 12:00:00 15.5 30 Oeste 58 Noroeste 0 -- -- 60
2019-11-23 11:00:00 15.2 24 Noroeste 55 Noroeste 0 -- -- 60
2019-11-23 10:00:00 13.2 22 Noroeste 48 Oeste 0 -- -- 70
2019-11-23 09:00:00 12.6 19 Noroeste 42 Oeste 0 -- -- 74
2019-11-23 08:00:00 12.4 21 Noroeste 49 Oeste 0 -- -- 78
2019-11-23 07:00:00 12.3 21 Noroeste 51 Oeste 0 -- -- 82
2019-11-23 06:00:00 13.6 24 Noroeste 60 Oeste 0 -- -- 72
2019-11-23 05:00:00 14.4 39 Oeste 73 Noroeste 0.2 -- -- 63
2019-11-23 04:00:00 14.9 37 Oeste 66 Oeste 0 -- -- 63
2019-11-23 03:00:00 14.8 38 Oeste 67 Noroeste 0 -- -- 64
2019-11-23 02:00:00 15.1 25 Oeste 50 Oeste 0 -- -- 69
2019-11-23 01:00:00 14.9 11 Noroeste 30 Oeste 0 -- -- 72
2019-11-23 00:00:00 14.9 18 Oeste 36 Oeste 0 -- -- 72
2019-11-22 23:00:00 14.6 7 Oeste 29 Oeste 0 -- -- 74
2019-11-22 22:00:00 14.4 9 Noroeste 29 Oeste 0 -- -- 77
2019-11-22 21:00:00 14.3 22 Oeste 46 Oeste 1.4 -- -- 90
2019-11-22 20:00:00 15.7 0 Calma 8 Sudoeste 0.8 -- -- 94
2019-11-22 19:00:00 15.9 3 Noroeste 10 Oeste 0.6 -- -- 93
2019-11-22 18:00:00 16.3 3 Nordeste 13 Sur 0 -- -- 92
2019-11-22 17:00:00 16.3 3 Sudoeste 13 Nordeste 0 -- -- 93
2019-11-22 16:00:00 15.8 0 Calma 14 Sur 0.2 -- -- 94
2019-11-22 15:00:00 15.5 6 Este 21 Sudeste 1.2 -- -- 93
2019-11-22 14:00:00 15.2 13 Sudeste 21 Sudeste 0 -- -- 94
2019-11-22 13:00:00 14.8 15 Sudeste 23 Sudeste 0.8 -- -- 96
2019-11-22 12:00:00 14.4 5 Sur 13 Este 0 -- -- 97
2019-11-22 11:00:00 13.9 2 Norte 5 Nordeste 0.2 -- -- 97
2019-11-22 10:00:00 13.5 4 Norte 13 Oeste 0.2 -- -- 97
2019-11-22 09:00:00 13 8 Oeste 20 Nordeste 2.2 -- -- 97
2019-11-22 08:00:00 12.9 4 Oeste 15 Norte 3.6 -- -- 96
2019-11-22 07:00:00 12.9 3 Noroeste 7 Noroeste 0.6 -- -- 96
2019-11-22 06:00:00 12.8 2 Nordeste 6 Nordeste 0 -- -- 96
2019-11-22 05:00:00 12.7 0 Calma 6 Nordeste 0 -- -- 96
2019-11-22 04:00:00 12.7 3 Sudeste 5 Sudeste 0 -- -- 96
2019-11-22 03:00:00 12.9 0 Calma 4 Oeste 0 -- -- 96
2019-11-22 02:00:00 12.8 0 Calma 5 Este 0 -- -- 96
2019-11-22 01:00:00 12.8 0 Calma 3 Sudeste 0 -- -- 95
2019-11-22 00:00:00 12.9 0 Calma 3 Sur 0 -- -- 95
2019-11-21 23:00:00 13 0 Calma 7 Sudeste 0 -- -- 95
2019-11-21 22:00:00 13.2 2 Este 4 Sudeste 0 -- -- 94
2019-11-21 21:00:00 13.2 0 Calma 5 Norte 0 -- -- 94
2019-11-21 20:00:00 13.3 3 Sur 4 Sur 0 -- -- 93
2019-11-21 19:00:00 13.4 3 Sudeste 4 Sudeste 0.2 -- -- 93
2019-11-21 18:00:00 13.5 2 Sur 6 Sudeste 0 -- -- 92
2019-11-21 17:00:00 13.7 3 Sur 15 Sur 0.2 -- -- 91
2019-11-21 16:00:00 14.2 8 Sur 14 Sur 0 -- -- 85
2019-11-21 15:00:00 14.2 9 Sudeste 12 Sudeste 0 -- -- 83
2019-11-21 14:00:00 14.2 7 Sur 18 Sudeste 0 -- -- 82
2019-11-21 13:00:00 13.4 3 Sudeste 8 Sudeste 0 -- -- 80
2019-11-21 12:00:00 12 3 Sudeste 6 Sudeste 0 -- -- 88
2019-11-21 11:00:00 11.2 2 Sudeste 4 Sur 0 -- -- 92
2019-11-21 10:00:00 10.2 0 Calma 4 Sudoeste 0 -- -- 94
2019-11-21 09:00:00 9.8 0 Calma 4 Este 0 -- -- 94
2019-11-21 08:00:00 9.6 0 Calma 4 Noroeste 0 -- -- 94
2019-11-21 07:00:00 9.4 0 Calma 4 Norte 0 -- -- 93
2019-11-21 06:00:00 9.6 2 Noroeste 4 Noroeste 0 -- -- 93
2019-11-21 05:00:00 9.6 0 Calma 5 Nordeste 0 -- -- 92
2019-11-21 04:00:00 9.6 0 Calma 3 Nordeste 0 -- -- 92
2019-11-21 03:00:00 9.9 2 Este 3 Sur 0 -- -- 91
2019-11-21 02:00:00 10.3 0 Calma 6 Este 0 -- -- 89
2019-11-21 01:00:00 10.9 0 Calma 3 Sur 0 -- -- 88
2019-11-21 00:00:00 11.3 0 Calma 5 Este 0 -- -- 86
2019-11-20 23:00:00 11.9 0 Calma 9 Este 0 -- -- 84
2019-11-20 22:00:00 12 8 Nordeste 10 Nordeste 0 -- -- 83
2019-11-20 21:00:00 12.2 0 Calma 6 Sudeste 0 -- -- 81
2019-11-20 20:00:00 12.1 3 Sudeste 8 Sudeste 0 -- -- 82
2019-11-20 19:00:00 12.2 3 Sur 5 Sudoeste 0 -- -- 82
2019-11-20 18:00:00 12.3 5 Sudeste 14 Sur 0 -- -- 82
2019-11-20 17:00:00 12.5 8 Sudeste 12 Sur 0 -- -- 81
2019-11-20 16:00:00 12.6 3 Sur 8 Sudoeste 0 -- -- 80
2019-11-20 15:00:00 11.4 2 Nordeste 6 Nordeste 0 -- -- 84
2019-11-20 14:00:00 10.5 3 Sudeste 9 Sudeste 0 -- -- 84
2019-11-20 13:00:00 9.9 6 Sudeste 14 Sudeste 0 -- -- 85
2019-11-20 12:00:00 9.3 7 Sudeste 12 Este 0 -- -- 86
2019-11-20 11:00:00 10.4 0 Calma 5 Oeste 0 -- -- 73
2019-11-20 10:00:00 9.1 4 Oeste 6 Sudoeste 0 -- -- 74
2019-11-20 09:00:00 6.8 0 Calma 9 Noroeste 0 -- -- 77
2019-11-20 08:00:00 6.3 7 Norte 9 Norte 0 -- -- 76
2019-11-20 07:00:00 7.3 0 Calma 4 Norte 0 -- -- 74
2019-11-20 06:00:00 7.9 3 Noroeste 10 Norte 0 -- -- 75
2019-11-20 05:00:00 8.4 6 Norte 13 Norte 0 -- -- 71
2019-11-20 04:00:00 9.8 4 Norte 6 Noroeste 0 -- -- 67
2019-11-20 03:00:00 10.6 3 Nordeste 5 Nordeste 0 -- -- 62
2019-11-20 02:00:00 10.8 0 Calma 4 Noroeste 0 -- -- 65
2019-11-20 01:00:00 11.1 2 Norte 4 Noroeste 0 -- -- 63
2019-11-20 00:00:00 11.2 3 Norte 6 Nordeste 0 -- -- 61
2019-11-19 23:00:00 11.4 2 Nordeste 5 Oeste 0 -- -- 59
2019-11-19 22:00:00 11.8 2 Norte 4 Nordeste 0 -- -- 56
2019-11-19 21:00:00 12.5 0 Calma 6 Este 0 -- -- 53
2019-11-19 20:00:00 12.9 2 Nordeste 10 Nordeste 0 -- -- 50
2019-11-19 19:00:00 13.8 4 Norte 9 Norte 0 -- -- 48
2019-11-19 18:00:00 15.1 3 Norte 14 Norte 0 -- -- 43
2019-11-19 17:00:00 16.2 6 Norte 18 Norte 0 -- -- 41
2019-11-19 16:00:00 17.6 7 Norte 18 Noroeste 0 -- -- 37
2019-11-19 15:00:00 18.8 5 Norte 22 Oeste 0 -- -- 33
2019-11-19 14:00:00 18.1 10 Noroeste 23 Oeste 0 -- -- 36
2019-11-19 13:00:00 16.9 8 Noroeste 23 Oeste 0 -- -- 42
2019-11-19 12:00:00 16.4 9 Noroeste 17 Noroeste 0 -- -- 48
2019-11-19 11:00:00 15.1 6 Noroeste 14 Noroeste 0 -- -- 54
2019-11-19 10:00:00 10.7 3 Norte 7 Noroeste 0 -- -- 71
2019-11-19 09:00:00 7.9 0 Calma 15 Noroeste 0 -- -- 77
2019-11-19 08:00:00 7.8 8 Norte 19 Noroeste 0 -- -- 78
2019-11-19 07:00:00 8.5 8 Noroeste 23 Noroeste 0 -- -- 75
2019-11-19 06:00:00 8.7 7 Norte 19 Norte 0 -- -- 74
2019-11-19 05:00:00 9.2 9 Noroeste 19 Noroeste 0 -- -- 73
2019-11-19 04:00:00 9.3 8 Noroeste 18 Noroeste 0 -- -- 73
2019-11-19 03:00:00 8.7 9 Noroeste 20 Norte 0 -- -- 76
2019-11-19 02:00:00 8.3 8 Noroeste 18 Noroeste 0 -- -- 74
2019-11-19 01:00:00 9 7 Noroeste 15 Noroeste 0 -- -- 74
2019-11-19 00:00:00 9.9 8 Noroeste 20 Noroeste 0 -- -- 71
2019-11-18 23:00:00 10.4 7 Noroeste 18 Noroeste 0 -- -- 71
2019-11-18 22:00:00 10.8 13 Noroeste 21 Norte 0 -- -- 67
2019-11-18 21:00:00 11.6 9 Nordeste 19 Noroeste 0 -- -- 63
2019-11-18 20:00:00 12.2 12 Noroeste 30 Oeste 0 -- -- 63
2019-11-18 19:00:00 12.7 13 Noroeste 30 Oeste 0 -- -- 62
2019-11-18 18:00:00 13.7 13 Noroeste 35 Noroeste 0 -- -- 56
2019-11-18 17:00:00 15.7 14 Noroeste 33 Noroeste 0 -- -- 51
2019-11-18 16:00:00 16.3 16 Noroeste 36 Norte 0 -- -- 48
2019-11-18 15:00:00 15.2 13 Norte 31 Noroeste 0 -- -- 50
2019-11-18 14:00:00 15.8 15 Norte 36 Norte 0 -- -- 47
2019-11-18 13:00:00 14.1 15 Noroeste 30 Noroeste 0 -- -- 57
2019-11-18 12:00:00 13.5 10 Noroeste 34 Noroeste 0 -- -- 59
2019-11-18 11:00:00 13.1 20 Noroeste 42 Oeste 0 -- -- 62
2019-11-18 10:00:00 13.4 15 Noroeste 33 Noroeste 0 -- -- 60
2019-11-18 09:00:00 11.4 14 Noroeste 33 Noroeste 0 -- -- 67
2019-11-18 08:00:00 11.1 11 Noroeste 40 Noroeste 0 -- -- 72
2019-11-18 07:00:00 11.9 25 Noroeste 51 Oeste 0 -- -- 73
2019-11-18 06:00:00 12.9 18 Noroeste 58 Noroeste 0 -- -- 77
2019-11-18 05:00:00 15.5 27 Noroeste 55 Oeste 0 -- -- 71
2019-11-18 04:00:00 14.7 6 Noroeste 22 Oeste 0 -- -- 72
2019-11-18 03:00:00 13.9 4 Norte 14 Sudoeste 0 -- -- 77
2019-11-18 02:00:00 13.4 3 Norte 11 Sudoeste 0 -- -- 80
2019-11-18 01:00:00 13.3 3 Norte 10 Sudoeste 0 -- -- 77
2019-11-18 00:00:00 12.9 3 Noroeste 10 Oeste 0 -- -- 78
2019-11-17 23:00:00 13.3 2 Nordeste 11 Nordeste 0 -- -- 76
2019-11-17 22:00:00 13.3 5 Nordeste 9 Nordeste 0 -- -- 74
2019-11-17 21:00:00 13.9 6 Este 11 Noroeste 0 -- -- 73
2019-11-17 20:00:00 14.2 5 Noroeste 11 Noroeste 0 -- -- 70
2019-11-17 19:00:00 14.7 2 Sur 19 Noroeste 0 -- -- 70
2019-11-17 18:00:00 15.7 9 Noroeste 25 Oeste 0 -- -- 68
2019-11-17 17:00:00 16.2 16 Oeste 35 Oeste 0 -- -- 66
2019-11-17 16:00:00 16.6 18 Oeste 42 Oeste 0 -- -- 63
2019-11-17 15:00:00 16.5 14 Noroeste 31 Oeste 0 -- -- 64
2019-11-17 14:00:00 15.7 13 Noroeste 28 Oeste 0 -- -- 65
2019-11-17 13:00:00 13.5 9 Norte 19 Noroeste 0 -- -- 63
2019-11-17 12:00:00 12.5 8 Noroeste 29 Noroeste 0 -- -- 62
2019-11-17 11:00:00 12.5 12 Noroeste 25 Noroeste 0 -- -- 56
2019-11-17 10:00:00 10.9 3 Este 9 Nordeste 0 -- -- 57
2019-11-17 09:00:00 9.3 5 Este 7 Este 0 -- -- 62
2019-11-17 08:00:00 7.5 0 Calma 8 Nordeste 0 -- -- 65
2019-11-17 07:00:00 7.1 4 Nordeste 9 Noroeste 0 -- -- 66
2019-11-17 06:00:00 7.3 5 Noroeste 16 Norte 0 -- -- 65
2019-11-17 05:00:00 7.1 6 Noroeste 17 Noroeste 0 -- -- 66
2019-11-17 04:00:00 7.1 9 Noroeste 17 Noroeste 0 -- -- 66
2019-11-17 03:00:00 7.4 8 Noroeste 15 Noroeste 0 -- -- 65
2019-11-17 02:00:00 7.6 6 Noroeste 17 Oeste 0 -- -- 66
2019-11-17 01:00:00 8.8 8 Noroeste 24 Oeste 0 -- -- 61
2019-11-17 00:00:00 9.5 13 Noroeste 27 Oeste 0 -- -- 58
2019-11-16 23:00:00 9.3 8 Noroeste 22 Sudoeste 0 -- -- 57
2019-11-16 22:00:00 9.5 6 Noroeste 18 Noroeste 0 -- -- 56
2019-11-16 21:00:00 9.4 8 Noroeste 17 Noroeste 0 -- -- 55
2019-11-16 20:00:00 10.3 4 Noroeste 14 Oeste 0 -- -- 53
2019-11-16 19:00:00 11.5 3 Noroeste 27 Noroeste 0 -- -- 48
2019-11-16 18:00:00 13.1 11 Noroeste 28 Oeste 0 -- -- 42
2019-11-16 17:00:00 15.1 10 Noroeste 32 Oeste 0 -- -- 37
2019-11-16 16:00:00 15.9 14 Noroeste 32 Noroeste 0 -- -- 37
2019-11-16 15:00:00 16.6 8 Noroeste 25 Oeste 0 -- -- 38
2019-11-16 14:00:00 15.4 11 Noroeste 31 Oeste 0 -- -- 40
2019-11-16 13:00:00 14 16 Noroeste 34 Noroeste 0 -- -- 44
2019-11-16 12:00:00 13.2 10 Noroeste 30 Oeste 0 -- -- 49
2019-11-16 11:00:00 10.8 13 Noroeste 28 Oeste 0 -- -- 53
2019-11-16 10:00:00 9.2 3 Noroeste 13 Norte 0 -- -- 58
2019-11-16 09:00:00 7.5 8 Norte 21 Norte 0 -- -- 62
2019-11-16 08:00:00 6.6 6 Norte 18 Noroeste 0 -- -- 64
2019-11-16 07:00:00 6.8 6 Norte 19 Norte 0 -- -- 64
2019-11-16 06:00:00 6.4 5 Norte 15 Noroeste 0 -- -- 65
2019-11-16 05:00:00 6.6 6 Noroeste 19 Noroeste 0 -- -- 66
2019-11-16 04:00:00 7.3 8 Noroeste 20 Noroeste 0 -- -- 64
2019-11-16 03:00:00 8.3 10 Noroeste 21 Noroeste 0 -- -- 59
2019-11-16 02:00:00 8.3 10 Noroeste 19 Noroeste 0 -- -- 61
2019-11-16 01:00:00 7.6 6 Noroeste 15 Noroeste 0 -- -- 64
2019-11-16 00:00:00 8.2 8 Noroeste 11 Noroeste 0 -- -- 62
2019-11-15 23:00:00 8.3 3 Norte 19 Nordeste 0 -- -- 60
2019-11-15 22:00:00 8.3 4 Norte 15 Oeste 0 -- -- 62
2019-11-15 21:00:00 9 9 Noroeste 22 Oeste 0 -- -- 61
2019-11-15 20:00:00 9.9 10 Noroeste 21 Oeste 0 -- -- 57
2019-11-15 19:00:00 10.5 7 Noroeste 22 Noroeste 0 -- -- 57
2019-11-15 18:00:00 10.7 6 Noroeste 29 Noroeste 0 -- -- 57
2019-11-15 17:00:00 11.2 13 Noroeste 35 Oeste 0 -- -- 54
2019-11-15 16:00:00 13.7 18 Noroeste 42 Oeste 0 -- -- 43
2019-11-15 15:00:00 14 22 Noroeste 46 Oeste 0 -- -- 40
2019-11-15 14:00:00 13.1 18 Noroeste 37 Oeste 0 -- -- 42
2019-11-15 13:00:00 14.2 10 Noroeste 38 Oeste 0 -- -- 44
2019-11-15 12:00:00 13.1 12 Noroeste 43 Oeste 0 -- -- 51
2019-11-15 11:00:00 12.5 15 Noroeste 39 Noroeste 0 -- -- 53
2019-11-15 10:00:00 11.1 10 Noroeste 30 Oeste 0 -- -- 63
2019-11-15 09:00:00 8.9 14 Noroeste 39 Oeste 0 -- -- 68
2019-11-15 08:00:00 7.9 16 Noroeste 40 Oeste 0 -- -- 71
2019-11-15 07:00:00 8.4 16 Noroeste 38 Noroeste 0 -- -- 70
2019-11-15 06:00:00 8.8 15 Noroeste 40 Noroeste 0 -- -- 67
2019-11-15 05:00:00 9.1 16 Noroeste 43 Noroeste 0 -- -- 66
2019-11-15 04:00:00 9.7 14 Noroeste 37 Noroeste 0 -- -- 68
2019-11-15 03:00:00 10.3 16 Noroeste 41 Oeste 0 -- -- 65
2019-11-15 02:00:00 10.4 17 Noroeste 45 Oeste 0 -- -- 67
2019-11-15 01:00:00 10.7 20 Noroeste 47 Noroeste 0 -- -- 66
2019-11-15 00:00:00 10.8 23 Noroeste 46 Oeste 0 -- -- 68
2019-11-14 23:00:00 10.5 18 Noroeste 39 Oeste 0 -- -- 69
2019-11-14 22:00:00 11.2 21 Noroeste 47 Oeste 0 -- -- 67
2019-11-14 21:00:00 11.4 22 Noroeste 45 Noroeste 0 -- -- 66
2019-11-14 20:00:00 11.2 13 Noroeste 35 Oeste 0 -- -- 69
2019-11-14 19:00:00 11.7 14 Noroeste 37 Noroeste 0 -- -- 67
2019-11-14 18:00:00 12.3 14 Noroeste 41 Oeste 0.2 -- -- 65
2019-11-14 17:00:00 12.7 18 Noroeste 52 Oeste 0 -- -- 65
2019-11-14 16:00:00 12.5 26 Noroeste 57 Norte 0.4 -- -- 71
2019-11-14 15:00:00 12.5 24 Noroeste 58 Oeste 0.6 -- -- 76
2019-11-14 14:00:00 13.1 22 Noroeste 46 Oeste 0 -- -- 83
2019-11-14 13:00:00 14.8 17 Noroeste 33 Noroeste 0 -- -- 75
2019-11-14 12:00:00 14.9 23 Oeste 50 Noroeste 0 -- -- 65
2019-11-14 11:00:00 15 29 Oeste 50 Oeste 0 -- -- 63
2019-11-14 10:00:00 13.5 5 Noroeste 30 Oeste 0 -- -- 69
2019-11-14 09:00:00 13 10 Noroeste 26 Noroeste 0 -- -- 68
2019-11-14 08:00:00 12.2 7 Oeste 29 Oeste 0 -- -- 69
2019-11-14 07:00:00 13 8 Noroeste 28 Oeste 0 -- -- 68
2019-11-14 06:00:00 14.7 3 Nordeste 23 Norte 0 -- -- 69
2019-11-14 05:00:00 14.5 9 Norte 23 Noroeste 0 -- -- 68
2019-11-14 04:00:00 14.4 8 Noroeste 22 Noroeste 0 -- -- 69
2019-11-14 03:00:00 15 9 Noroeste 22 Norte 0 -- -- 70
2019-11-14 02:00:00 15.6 13 Norte 26 Oeste 0 -- -- 68
2019-11-14 01:00:00 15.4 14 Noroeste 21 Norte 0 -- -- 70
2019-11-14 00:00:00 16.2 10 Noroeste 27 Noroeste 0 -- -- 68
2019-11-13 23:00:00 16.8 15 Noroeste 27 Noroeste 0 -- -- 66
2019-11-13 22:00:00 16.9 13 Noroeste 30 Oeste 0 -- -- 66
2019-11-13 21:00:00 17 18 Noroeste 36 Oeste 0 -- -- 66
2019-11-13 20:00:00 16.9 10 Noroeste 27 Noroeste 0 -- -- 67
2019-11-13 19:00:00 17.6 13 Noroeste 30 Noroeste 0 -- -- 68
2019-11-13 18:00:00 18.5 15 Noroeste 35 Noroeste 0 -- -- 64
2019-11-13 17:00:00 19.7 16 Noroeste 37 Oeste 0 -- -- 62
2019-11-13 16:00:00 18.7 13 Noroeste 45 Oeste 0 -- -- 67
2019-11-13 15:00:00 19.6 18 Noroeste 45 Oeste 0 -- -- 64
2019-11-13 14:00:00 18.7 12 Noroeste 31 Oeste 0 -- -- 68
2019-11-13 13:00:00 18.4 22 Oeste 40 Oeste 0 -- -- 66
2019-11-13 12:00:00 18.1 6 Noroeste 20 Oeste 0 -- -- 65
2019-11-13 11:00:00 16 9 Noroeste 38 Noroeste 0 -- -- 73
2019-11-13 10:00:00 15.8 13 Noroeste 31 Oeste 0 -- -- 70
2019-11-13 09:00:00 15 4 Noroeste 17 Oeste 0 -- -- 73
2019-11-13 08:00:00 14.6 3 Sudoeste 27 Oeste 0 -- -- 74
2019-11-13 07:00:00 14.5 10 Noroeste 30 Oeste 0 -- -- 76
2019-11-13 06:00:00 15 7 Noroeste 24 Noroeste 0 -- -- 72
2019-11-13 05:00:00 14.9 7 Norte 23 Noroeste 0 -- -- 67
2019-11-13 04:00:00 14.7 12 Noroeste 24 Noroeste 0 -- -- 66
2019-11-13 03:00:00 14.8 10 Noroeste 22 Noroeste 0 -- -- 63
2019-11-13 02:00:00 14.1 8 Noroeste 22 Oeste 0 -- -- 60
2019-11-13 01:00:00 13.2 10 Noroeste 24 Noroeste 0 -- -- 61
2019-11-13 00:00:00 14 10 Noroeste 31 Noroeste 0 -- -- 59
2019-11-12 23:00:00 14.5 15 Noroeste 32 Oeste 0 -- -- 58
2019-11-12 22:00:00 14.8 15 Noroeste 30 Noroeste 0 -- -- 57
2019-11-12 21:00:00 15.3 13 Noroeste 36 Oeste 0 -- -- 53
2019-11-12 20:00:00 15.3 11 Noroeste 27 Noroeste 0 -- -- 56
2019-11-12 19:00:00 15.7 11 Noroeste 30 Noroeste 0 -- -- 54
2019-11-12 18:00:00 16.6 14 Noroeste 34 Oeste 0 -- -- 52
2019-11-12 17:00:00 18 12 Noroeste 42 Noroeste 0 -- -- 50
2019-11-12 16:00:00 18.8 15 Noroeste 41 Noroeste 0 -- -- 51
2019-11-12 15:00:00 18.8 21 Noroeste 42 Oeste 0 -- -- 53
2019-11-12 14:00:00 19.1 18 Noroeste 40 Oeste 0 -- -- 53
2019-11-12 13:00:00 18.7 21 Noroeste 40 Noroeste 0 -- -- 56
2019-11-12 12:00:00 17.2 14 Noroeste 31 Oeste 0 -- -- 61
2019-11-12 11:00:00 14.9 10 Noroeste 32 Noroeste 0 -- -- 70
2019-11-12 10:00:00 14.3 7 Noroeste 22 Norte 0 -- -- 75
2019-11-12 09:00:00 13.4 6 Nordeste 10 Nordeste 0 -- -- 81
2019-11-12 08:00:00 12.6 4 Nordeste 13 Norte 0 -- -- 82
2019-11-12 07:00:00 13.3 9 Noroeste 20 Norte 0 -- -- 78
2019-11-12 06:00:00 13.9 6 Norte 22 Norte 0 -- -- 79
2019-11-12 05:00:00 14.2 11 Norte 16 Noroeste 0 -- -- 79
2019-11-12 04:00:00 14.7 10 Norte 23 Norte 0 -- -- 77
2019-11-12 03:00:00 14.7 7 Norte 18 Norte 0 -- -- 78
2019-11-12 02:00:00 14.5 9 Noroeste 17 Noroeste 0 -- -- 82
2019-11-12 01:00:00 14.6 8 Norte 15 Noroeste 0 -- -- 81
2019-11-12 00:00:00 14.9 6 Norte 17 Noroeste 0 -- -- 81
2019-11-11 23:00:00 14.9 9 Noroeste 17 Noroeste 0 -- -- 80
2019-11-11 22:00:00 14.8 4 Norte 17 Norte 0 -- -- 79
2019-11-11 21:00:00 15 6 Norte 18 Nordeste 0 -- -- 79
2019-11-11 20:00:00 14.5 12 Nordeste 22 Norte 0 -- -- 80
2019-11-11 19:00:00 14.4 10 Nordeste 17 Nordeste 0 -- -- 81
2019-11-11 18:00:00 14.1 13 Nordeste 24 Nordeste 0 -- -- 83
2019-11-11 17:00:00 14.9 14 Nordeste 28 Noroeste 0 -- -- 79
2019-11-11 16:00:00 15.8 11 Noroeste 27 Oeste 0 -- -- 70
2019-11-11 15:00:00 15.1 7 Noroeste 27 Noroeste 0 -- -- 68
2019-11-11 14:00:00 15.1 13 Noroeste 35 Oeste 0 -- -- 66
2019-11-11 13:00:00 15.3 11 Noroeste 28 Noroeste 0 -- -- 63
2019-11-11 12:00:00 15.7 8 Noroeste 32 Oeste 0 -- -- 61
2019-11-11 11:00:00 15.7 12 Noroeste 24 Noroeste 0 -- -- 60
2019-11-11 10:00:00 13.4 11 Noroeste 23 Noroeste 0 -- -- 69
2019-11-11 09:00:00 12.5 10 Oeste 16 Noroeste 0 -- -- 71
2019-11-11 08:00:00 12.3 11 Noroeste 26 Oeste 0 -- -- 71
2019-11-11 07:00:00 12.5 8 Oeste 24 Oeste 0 -- -- 71
2019-11-11 06:00:00 12.6 12 Noroeste 28 Noroeste 0 -- -- 68
2019-11-11 05:00:00 12.5 10 Oeste 20 Oeste 0 -- -- 69
2019-11-11 04:00:00 12.9 9 Noroeste 28 Oeste 0 -- -- 65
2019-11-11 03:00:00 13.3 15 Noroeste 41 Oeste 0 -- -- 62
2019-11-11 02:00:00 13.3 17 Noroeste 45 Noroeste 0 -- -- 60
2019-11-11 01:00:00 13.3 16 Noroeste 41 Noroeste 0 -- -- 59
2019-11-11 00:00:00 13.2 14 Noroeste 38 Noroeste 0 -- -- 59
2019-11-10 23:00:00 12.9 10 Noroeste 42 Noroeste 0 -- -- 59
2019-11-10 22:00:00 13.6 17 Noroeste 66 Oeste 0 -- -- 56
2019-11-10 21:00:00 13.5 21 Noroeste 62 Oeste 0 -- -- 54
2019-11-10 20:00:00 13.5 21 Noroeste 53 Oeste 0 -- -- 52
2019-11-10 19:00:00 14.2 22 Noroeste 55 Oeste 0 -- -- 49
2019-11-10 18:00:00 15.7 27 Noroeste 62 Oeste 0 -- -- 40
2019-11-10 17:00:00 17.2 25 Noroeste 57 Noroeste 0 -- -- 37
2019-11-10 16:00:00 18.2 22 Noroeste 61 Noroeste 0 -- -- 37
2019-11-10 15:00:00 18.5 21 Noroeste 58 Noroeste 0 -- -- 37
2019-11-10 14:00:00 17.9 17 Noroeste 46 Noroeste 0 -- -- 42
2019-11-10 13:00:00 16.8 20 Noroeste 54 Noroeste 0 -- -- 46
2019-11-10 12:00:00 16.1 25 Noroeste 54 Oeste 0 -- -- 50
2019-11-10 11:00:00 14.9 21 Noroeste 69 Oeste 0 -- -- 52
2019-11-10 10:00:00 14.4 29 Noroeste 63 Noroeste 0 -- -- 54
2019-11-10 09:00:00 12.9 26 Noroeste 64 Noroeste 0 -- -- 60
2019-11-10 08:00:00 12.9 22 Noroeste 54 Oeste 0 -- -- 62
2019-11-10 07:00:00 13.7 21 Noroeste 54 Oeste 0 -- -- 62
2019-11-10 06:00:00 14.4 13 Noroeste 46 Oeste 0 -- -- 70
2019-11-10 05:00:00 14.8 7 Noroeste 37 Noroeste 0 -- -- 71
2019-11-10 04:00:00 15 12 Noroeste 30 Noroeste 0 -- -- 73
2019-11-10 03:00:00 15.1 8 Noroeste 22 Noroeste 0 -- -- 76
2019-11-10 02:00:00 14.7 8 Noroeste 28 Noroeste 0 -- -- 72
2019-11-10 01:00:00 15 8 Noroeste 22 Noroeste 0 -- -- 67
2019-11-10 00:00:00 14.7 8 Noroeste 20 Noroeste 0 -- -- 62